Latest Coastal Weather Observations for Yarram Airport

IDV60701

Issued at 8:32 pm EDT Tuesday 20 February 2018 (issued every 10 minutes, with the page automatically refreshed every 10 minutes)

About coastal observations | Map of coastal stations | Coastal observations for VIC | Marine services | Other Formats
Station Details ID: 085151 Name: YARRAM AIRPORT Lat: -38.56 Lon: 146.75 Height: 17.9 m
Data from the previous 72 hours. | See also: Recent months at Yarram Airport
Date/Time
EDT
Temp
°C
Wind Pressure Rain since
9am
mm
Weather Cloud Vis
km
Sea
Height
m
Swell
Dir  Spd
kts
Gust
kts
hPa Trend Height
m
Period
s
Dir
20/08:30pm 16.3 ENE 9 16 1019.7 - 0.0 - - - - - - -
20/08:00pm 16.9 ENE 11 16 1019.5 - 0.0 - - - - - - -
20/07:30pm 17.6 ENE 12 19 1019.3 - 0.0 - - - - - - -
20/07:00pm 18.2 ENE 13 19 1019.1 - 0.0 - - - - - - -
20/06:30pm 19.0 E 14 21 1019.1 - 0.0 - - - - - - -
20/06:00pm 19.4 ENE 13 22 1019.3 - 0.0 - - - - - - -
20/05:30pm 20.5 ENE 14 23 1019.4 - 0.0 - - - - - - -
20/05:00pm 19.8 E 16 24 1019.4 - 0.0 - - - - - - -
20/04:35pm 20.1 E 17 27 1019.8 - 0.0 - - - - - - -
20/04:30pm 21.1 E 16 25 1019.8 - 0.0 - - - - - - -
20/04:04pm 20.5 E 16 26 1020.1 - 0.0 - - - - - - -
20/04:00pm 21.0 E 16 23 1020.1 - 0.0 - - - - - - -
20/03:30pm 20.5 E 16 25 1020.2 - 0.0 - - - - - - -
20/03:00pm 21.5 ENE 16 23 1020.5 - 0.0 - - - - - - -
20/02:30pm 21.0 E 16 23 1020.8 - 0.0 - - - - - - -
20/02:00pm 20.9 ENE 15 27 1021.2 - 0.0 - - - - - - -
20/01:57pm 21.0 ENE 15 27 1021.2 - 0.0 - - - - - - -
20/01:30pm 20.4 ENE 15 22 1021.6 - 0.0 - - - - - - -
20/01:00pm 20.8 ENE 16 22 1021.5 - 0.0 - - - - - - -
20/12:30pm 19.7 ENE 15 22 1021.7 - 0.0 - - - - - - -
20/12:00pm 20.5 ENE 15 23 1021.7 - 0.0 - - - - - - -
20/11:30am 19.8 ENE 15 23 1021.9 - 0.0 - - - - - - -
20/11:00am 20.4 ENE 16 23 1021.9 - 0.0 - - - - - - -
20/10:37am 19.4 E 15 25 1022.0 - 0.0 - - - - - - -
20/10:30am 19.5 ENE 15 22 1022.0 - 0.0 - - - - - - -
20/10:00am 19.0 E 14 22 1022.2 - 0.0 - - - - - - -
20/09:30am 18.3 ENE 14 20 1022.4 - 0.0 - - - - - - -
20/09:00am 17.8 E 14 19 1022.5 - 0.0 - - - - - - -
20/08:30am 17.5 E 12 16 1022.6 - 0.0 - - - - - - -
20/08:00am 17.3 E 10 16 1022.4 - 0.0 - - - - - - -
20/07:30am 16.8 E 7 11 1022.4 - 0.0 - - - - - - -
20/07:00am 16.4 ENE 8 11 1022.2 - 0.0 - - - - - - -
20/06:30am 16.3 E 9 14 1022.0 - 0.0 - - - - - - -
20/06:00am 16.3 E 8 12 1021.9 - 0.0 - - - - - - -
20/05:30am 16.0 E 9 14 1021.8 - 0.0 - - - - - - -
20/05:00am 16.3 E 10 15 1021.6 - 0.0 - - - - - - -
20/04:30am 15.2 ENE 7 12 1021.5 - 0.0 - - - - - - -
20/04:00am 15.9 ENE 7 11 1021.6 - 0.0 - - - - - - -
20/03:30am 16.6 E 10 14 1021.8 - 0.0 - - - - - - -
20/03:00am 16.7 E 11 17 1021.7 - 0.0 - - - - - - -
20/02:30am 16.7 E 12 18 1021.5 - 0.0 - - - - - - -
20/02:00am 15.9 ENE 8 13 1021.7 - 0.0 - - - - - - -
20/01:30am 15.9 E 11 17 1021.7 - 0.0 - - - - - - -
20/01:00am 16.0 E 11 16 1021.7 - 0.0 - - - - - - -
20/12:30am 16.2 E 13 19 1021.5 - 0.0 - - - - - - -
20/12:00am 16.5 E 13 20 1021.6 - 0.0 - - - - - - -
 
Date/Time
EDT
Temp
°C
Wind Pressure Rain since
9am
mm
Weather Cloud Vis
km
Sea
Height
m
Swell
Dir  Spd
kts
Gust
kts
hPa Trend Height
m
Period
s
Dir
19/11:30pm 16.6 E 12 21 1021.7 - 0.0 - - - - - - -
19/11:00pm 16.5 E 13 19 1022.0 - 0.0 - - - - - - -
19/10:30pm 17.0 E 14 20 1022.1 - 0.0 - - - - - - -
19/10:20pm 17.1 E 16 26 1022.1 - 0.0 - - - - - - -
19/10:00pm 17.1 E 15 23 1021.9 - 0.0 - - - - - - -
19/09:48pm 17.2 E 16 27 1022.0 - 0.0 - - - - - - -
19/09:30pm 17.2 ESE 17 24 1021.8 - 0.0 - - - - - - -
19/09:13pm 17.3 E 15 25 1021.6 - 0.0 - - - - - - -
19/09:00pm 17.4 E 16 23 1021.4 - 0.0 - - - - - - -
19/08:30pm 17.6 E 14 21 1021.0 - 0.0 - - - - - - -
19/08:00pm 17.7 E 13 21 1020.9 - 0.0 - - - - - - -
19/07:30pm 17.8 ESE 15 23 1020.7 - 0.0 - - - - - - -
19/07:00pm 18.0 ESE 13 21 1020.3 - 0.0 - - - - - - -
19/06:53pm 18.0 ESE 16 26 1020.3 - 0.0 - - - - - - -
19/06:30pm 18.1 E 17 24 1020.2 - 0.0 - - - - - - -
19/06:06pm 18.3 E 18 28 1020.1 - 0.0 - - - - - - -
19/06:00pm 18.4 E 16 24 1020.1 - 0.0 - - - - - - -
19/05:30pm 19.0 ESE 19 25 1020.0 - 0.0 - - - - - - -
19/05:00pm 18.8 ESE 17 27 1019.8 - 0.0 - - - - - - -
19/04:49pm 18.6 ESE 18 28 1019.8 - 0.0 - - - - - - -
19/04:30pm 18.4 ESE 18 27 1019.8 - 0.0 - - - - - - -
19/04:05pm 18.6 ESE 17 27 1019.6 - 0.0 - - - - - - -
19/04:00pm 18.6 ESE 18 26 1019.6 - 0.0 - - - - - - -
19/03:49pm 18.9 ESE 15 26 1019.4 - 0.0 - - - - - - -
19/03:30pm 18.3 E 16 25 1019.4 - 0.0 - - - - - - -
19/03:00pm 19.2 ESE 16 25 1019.2 - 0.0 - - - - - - -
19/02:30pm 19.2 ESE 18 26 1019.1 - 0.0 - - - - - - -
19/02:00pm 18.8 E 16 23 1019.0 - 0.0 - - - - - - -
19/01:30pm 18.8 E 18 27 1018.9 - 0.0 - - - - - - -
19/01:00pm 18.5 ESE 16 25 1018.8 - 0.0 - - - - - - -
19/12:30pm 18.7 ESE 16 23 1018.8 - 0.0 - - - - - - -
19/12:00pm 18.4 ESE 17 23 1018.9 - 0.0 - - - - - - -
19/11:30am 18.4 ESE 18 24 1018.8 - 0.0 - - - - - - -
19/11:00am 18.1 ESE 16 25 1018.7 - 0.0 - - - - - - -
19/10:36am 17.9 ESE 16 26 1018.6 - 0.0 - - - - - - -
19/10:30am 18.0 ESE 14 21 1018.6 - 0.0 - - - - - - -
19/10:00am 17.5 ESE 18 25 1018.5 - 0.0 - - - - - - -
19/09:30am 17.7 ESE 17 24 1018.2 - 0.0 - - - - - - -
19/09:20am 17.5 ESE 15 25 1018.0 - 0.0 - - - - - - -
19/09:00am 17.5 ESE 16 20 1017.8 - 4.2 Recent precip. - - - - - -
19/08:44am 17.0 ESE 15 25 1017.7 - 4.2 - - - - - - -
19/08:30am 17.3 ESE 16 23 1017.5 - 4.0 - - - - - - -
19/08:00am 17.7 ESE 11 18 1017.0 - 4.0 - - - - - - -
19/07:30am 16.8 ESE 4 7 1016.8 - 4.0 - - - - - - -
19/07:00am 16.3 ESE 4 6 1016.6 - 4.0 - - - - - - -
19/06:30am 16.2 E 5 6 1016.1 - 4.0 - - - - - - -
19/06:00am 16.7 ESE 5 7 1015.8 - 4.0 Recent precip. - - - - - -
19/05:30am 16.9 CALM 0 3 1015.9 - 3.8 - - - - - - -
19/05:00am 16.7 CALM 0 0 1015.7 - 3.6 - - - - - - -
19/04:30am 16.7 CALM 0 0 1015.7 - 3.2 - - - - - - -
19/04:00am 16.8 NW 1 3 1015.6 - 2.0 - - - - - - -
19/03:30am 16.9 WNW 5 6 1015.9 - 0.8 - - - - - - -
19/03:00am 16.8 CALM 0 0 1015.8 - 0.4 Recent precip. - - - - - -
19/02:30am 16.8 CALM 0 0 1015.6 - 0.4 - - - - - - -
19/02:00am 16.6 CALM 0 0 1015.9 - 0.2 - - - - - - -
19/01:30am 16.7 CALM 0 0 1016.1 - 0.2 - - - - - - -
19/01:00am 17.3 CALM 0 0 1016.2 - 0.0 - - - - - - -
19/12:30am 17.4 CALM 0 0 1016.4 - 0.0 - - - - - - -
19/12:00am 17.9 CALM 0 0 1016.4 - 0.0 - - - - - - -
 
Date/Time
EDT
Temp
°C
Wind Pressure Rain since
9am
mm
Weather Cloud Vis
km
Sea
Height
m
Swell
Dir  Spd
kts
Gust
kts
hPa Trend Height
m
Period
s
Dir
18/11:30pm 17.8 CALM 0 0 1016.2 - 0.0 - - - - - - -
18/11:00pm 17.7 CALM 0 0 1015.9 - 0.0 - - - - - - -
18/10:30pm 17.6 CALM 0 0 1015.9 - 0.0 - - - - - - -
18/10:00pm 17.8 CALM 0 0 1015.8 - 0.0 - - - - - - -
18/09:30pm 17.8 NE 4 5 1015.3 - 0.0 - - - - - - -
18/09:00pm 18.6 ESE 3 5 1015.3 - 0.0 - - - - - - -
18/08:30pm 18.6 ESE 5 6 1015.0 - 0.0 - - - - - - -
18/08:00pm 18.8 SE 7 8 1014.6 - 0.0 - - - - - - -
18/07:30pm 19.2 SE 6 7 1014.4 - 0.0 - - - - - - -
18/07:00pm 19.5 SSE 8 9 1013.8 - 0.0 - - - - - - -
18/06:30pm 19.6 SSE 9 11 1013.5 - 0.0 - - - - - - -
18/06:00pm 20.0 SE 9 13 1013.3 - 0.0 - - - - - - -
18/05:30pm 20.5 SSE 8 11 1013.2 - 0.0 - - - - - - -
18/05:00pm 20.0 SSE 10 12 1013.1 - 0.0 - - - - - - -
18/04:30pm 20.6 SSE 10 12 1013.0 - 0.0 - - - - - - -
18/04:00pm 21.5 SSE 10 15 1013.0 - 0.0 - - - - - - -
18/03:30pm 22.9 SSE 7 11 1012.9 - 0.0 - - - - - - -
18/03:00pm 21.3 SSE 11 14 1013.2 - 0.0 - - - - - - -
18/02:30pm 22.7 SE 9 14 1013.0 - 0.0 - - - - - - -
18/02:00pm 22.7 SSE 12 21 1013.2 - 0.0 - - - - - - -
18/01:30pm 23.3 SE 10 16 1013.0 - 0.0 - - - - - - -
18/01:00pm 22.8 SE 10 14 1013.0 - 0.0 - - - - - - -
18/12:30pm 23.8 SE 9 15 1013.0 - 0.0 - - - - - - -
18/12:00pm 24.0 SSW 4 7 1013.0 - 0.0 - - - - - - -
18/11:30am 23.2 ESE 4 7 1013.0 - 0.0 - - - - - - -
18/11:00am 22.4 NNE 5 8 1013.0 - 0.0 - - - - - - -
18/10:30am 21.1 SW 1 4 1013.1 - 0.0 - - - - - - -
18/10:00am 19.9 SW 4 7 1013.3 - 0.0 - - - - - - -
18/09:30am 18.9 SSW 4 7 1013.2 - 0.0 - - - - - - -
18/09:00am 18.1 W 5 6 1013.3 - 0.0 - - - - - - -
18/08:30am 16.7 NW 4 5 1013.1 - 0.0 - - - - - - -
18/08:00am 13.1 CALM 0 0 1012.9 - 0.0 - - - - - - -
18/07:30am 10.2 CALM 0 0 1012.5 - 0.0 - - - - - - -
18/07:00am 10.0 CALM 0 0 1012.5 - 0.0 - - - - - - -
18/06:30am 10.0 CALM 0 0 1012.1 - 0.0 - - - - - - -
18/06:00am 9.2 CALM 0 0 1012.2 - 0.0 - - - - - - -
18/05:30am 9.3 CALM 0 0 1012.3 - 0.0 - - - - - - -
18/05:00am 10.1 CALM 0 0 1012.2 - 0.0 - - - - - - -
18/04:30am 9.6 CALM 0 0 1012.1 - 0.0 - - - - - - -
18/04:00am 9.7 CALM 0 0 1012.1 - 0.0 - - - - - - -
18/03:30am 10.8 WNW 2 3 1012.3 - 0.0 - - - - - - -
18/03:00am 9.9 NNW 5 5 1012.4 - 0.0 - - - - - - -
18/02:30am 11.2 NW 4 5 1012.6 - 0.0 - - - - - - -
18/02:00am 11.5 WNW 5 5 1012.9 - 0.0 - - - - - - -
18/01:30am 12.0 CALM 0 4 1013.2 - 0.0 - - - - - - -
18/01:00am 12.9 W 1 4 1013.4 - 0.0 - - - - - - -
18/12:30am 13.5 NE 6 7 1013.2 - 0.0 - - - - - - -
18/12:00am 13.0 NNE 6 6 1013.3 - 0.0 - - - - - - -
 
Date/Time
EDT
Temp
°C
Wind Pressure Rain since
9am
mm
Weather Cloud Vis
km
Sea
Height
m
Swell
Dir  Spd
kts
Gust
kts
hPa Trend Height
m
Period
s
Dir
17/11:30pm 13.0 NNE 5 6 1013.3 - 0.0 - - - - - - -
17/11:00pm 13.4 NNE 6 7 1013.5 - 0.0 - - - - - - -
17/10:30pm 12.2 N 6 7 1013.7 - 0.0 - - - - - - -
17/10:00pm 12.6 N 6 7 1013.7 - 0.0 - - - - - - -
17/09:30pm 13.6 N 4 5 1013.6 - 0.0 - - - - - - -
17/09:00pm 15.6 WNW 4 6 1013.1 - 0.0 - - - - - - -

Other Formats:

Comma delimited format used in spreadsheet applications
http://www.bom.gov.au/fwo/IDV60701/IDV60701.95890.axf

JavaScript Object Notation format (JSON) in row-major order
http://www.bom.gov.au/fwo/IDV60701/IDV60701.95890.json